sensor_id;sensor_type;location;lat;lon;timestamp;temperature;humidity
19646;DHT22;9971;52.446;13.452;2022-12-18T00:03:38;13.00;99.90
19646;DHT22;9971;52.446;13.452;2022-12-18T00:08:41;12.90;99.90
19646;DHT22;9971;52.446;13.452;2022-12-18T00:13:43;13.00;99.90
19646;DHT22;9971;52.446;13.452;2022-12-18T00:18:45;12.90;99.90
19646;DHT22;9971;52.446;13.452;2022-12-18T00:23:48;12.90;99.90
19646;DHT22;9971;52.446;13.452;2022-12-18T00:28:49;12.90;99.90
19646;DHT22;9971;52.446;13.452;2022-12-18T00:33:53;12.90;99.90
19646;DHT22;9971;52.446;13.452;2022-12-18T00:38:54;12.90;99.90
19646;DHT22;9971;52.446;13.452;2022-12-18T00:43:56;12.90;99.90
19646;DHT22;9971;52.446;13.452;2022-12-18T00:48:58;12.90;99.90
19646;DHT22;9971;52.446;13.452;2022-12-18T00:54:00;12.90;99.90
19646;DHT22;9971;52.446;13.452;2022-12-18T00:59:02;12.80;99.90
19646;DHT22;9971;52.446;13.452;2022-12-18T01:04:05;12.90;99.90
19646;DHT22;9971;52.446;13.452;2022-12-18T01:09:07;12.90;99.90
19646;DHT22;9971;52.446;13.452;2022-12-18T01:14:09;12.80;99.90
19646;DHT22;9971;52.446;13.452;2022-12-18T01:19:12;12.80;99.90
19646;DHT22;9971;52.446;13.452;2022-12-18T01:24:14;12.80;99.90
19646;DHT22;9971;52.446;13.452;2022-12-18T01:29:17;12.80;99.90
19646;DHT22;9971;52.446;13.452;2022-12-18T01:34:19;12.80;99.90
19646;DHT22;9971;52.446;13.452;2022-12-18T01:39:21;12.80;99.90
19646;DHT22;9971;52.446;13.452;2022-12-18T01:49:38;12.80;99.90
19646;DHT22;9971;52.446;13.452;2022-12-18T01:54:40;12.80;99.90
19646;DHT22;9971;52.446;13.452;2022-12-18T01:59:42;12.80;99.90
19646;DHT22;9971;52.446;13.452;2022-12-18T02:04:45;12.80;99.90
19646;DHT22;9971;52.446;13.452;2022-12-18T02:09:48;12.80;99.90
19646;DHT22;9971;52.446;13.452;2022-12-18T02:15:13;12.80;99.90
19646;DHT22;9971;52.446;13.452;2022-12-18T02:20:14;12.80;99.90
19646;DHT22;9971;52.446;13.452;2022-12-18T02:30:34;12.80;99.90
19646;DHT22;9971;52.446;13.452;2022-12-18T02:35:36;12.80;99.90
19646;DHT22;9971;52.446;13.452;2022-12-18T02:40:38;12.80;99.90
19646;DHT22;9971;52.446;13.452;2022-12-18T02:45:49;12.80;99.90
19646;DHT22;9971;52.446;13.452;2022-12-18T02:56:12;12.70;99.90
19646;DHT22;9971;52.446;13.452;2022-12-18T03:01:15;12.80;99.90
19646;DHT22;9971;52.446;13.452;2022-12-18T03:06:21;12.70;99.90
19646;DHT22;9971;52.446;13.452;2022-12-18T03:11:22;12.70;99.90
19646;DHT22;9971;52.446;13.452;2022-12-18T03:16:25;12.70;99.90
19646;DHT22;9971;52.446;13.452;2022-12-18T03:21:28;12.70;99.90
19646;DHT22;9971;52.446;13.452;2022-12-18T03:26:28;12.70;99.90
19646;DHT22;9971;52.446;13.452;2022-12-18T03:31:30;12.70;99.90
19646;DHT22;9971;52.446;13.452;2022-12-18T03:36:32;12.70;99.90
19646;DHT22;9971;52.446;13.452;2022-12-18T03:41:41;12.60;99.90
19646;DHT22;9971;52.446;13.452;2022-12-18T03:47:15;12.70;99.90
19646;DHT22;9971;52.446;13.452;2022-12-18T03:52:03;12.60;99.90
19646;DHT22;9971;52.446;13.452;2022-12-18T03:57:20;12.60;99.90
19646;DHT22;9971;52.446;13.452;2022-12-18T04:02:22;12.60;99.90
19646;DHT22;9971;52.446;13.452;2022-12-18T04:07:24;12.60;99.90
19646;DHT22;9971;52.446;13.452;2022-12-18T04:12:26;12.60;99.90
19646;DHT22;9971;52.446;13.452;2022-12-18T04:17:28;12.60;99.90
19646;DHT22;9971;52.446;13.452;2022-12-18T04:22:31;12.60;99.90
19646;DHT22;9971;52.446;13.452;2022-12-18T04:27:33;12.60;99.90
19646;DHT22;9971;52.446;13.452;2022-12-18T04:32:35;12.60;99.90
19646;DHT22;9971;52.446;13.452;2022-12-18T04:37:37;12.60;99.90
19646;DHT22;9971;52.446;13.452;2022-12-18T04:42:40;12.60;99.90
19646;DHT22;9971;52.446;13.452;2022-12-18T04:47:42;12.50;99.90
19646;DHT22;9971;52.446;13.452;2022-12-18T04:52:45;12.50;99.90
19646;DHT22;9971;52.446;13.452;2022-12-18T04:57:47;12.50;99.90
19646;DHT22;9971;52.446;13.452;2022-12-18T05:02:50;12.60;99.90
19646;DHT22;9971;52.446;13.452;2022-12-18T05:07:52;12.50;99.90
19646;DHT22;9971;52.446;13.452;2022-12-18T05:12:55;12.50;99.90
19646;DHT22;9971;52.446;13.452;2022-12-18T05:17:59;12.50;99.90
19646;DHT22;9971;52.446;13.452;2022-12-18T05:23:01;12.50;99.90
19646;DHT22;9971;52.446;13.452;2022-12-18T05:28:04;12.50;99.90
19646;DHT22;9971;52.446;13.452;2022-12-18T05:33:06;12.50;99.90
19646;DHT22;9971;52.446;13.452;2022-12-18T05:38:08;12.50;99.90
19646;DHT22;9971;52.446;13.452;2022-12-18T05:43:11;12.50;99.90
19646;DHT22;9971;52.446;13.452;2022-12-18T05:48:13;12.50;99.90
19646;DHT22;9971;52.446;13.452;2022-12-18T05:53:16;12.50;99.90
19646;DHT22;9971;52.446;13.452;2022-12-18T05:58:18;12.50;99.90
19646;DHT22;9971;52.446;13.452;2022-12-18T06:03:20;12.50;99.90
19646;DHT22;9971;52.446;13.452;2022-12-18T06:08:23;12.50;99.90
19646;DHT22;9971;52.446;13.452;2022-12-18T06:13:25;12.50;99.90
19646;DHT22;9971;52.446;13.452;2022-12-18T06:18:28;12.50;99.90
19646;DHT22;9971;52.446;13.452;2022-12-18T06:23:30;12.50;99.90
19646;DHT22;9971;52.446;13.452;2022-12-18T06:28:33;12.50;99.90
19646;DHT22;9971;52.446;13.452;2022-12-18T06:33:35;12.50;99.90
19646;DHT22;9971;52.446;13.452;2022-12-18T06:38:38;12.50;99.90
19646;DHT22;9971;52.446;13.452;2022-12-18T06:43:40;12.40;99.90
19646;DHT22;9971;52.446;13.452;2022-12-18T06:48:42;12.40;99.90
19646;DHT22;9971;52.446;13.452;2022-12-18T06:53:44;12.50;99.90
19646;DHT22;9971;52.446;13.452;2022-12-18T06:58:47;12.40;99.90
19646;DHT22;9971;52.446;13.452;2022-12-18T07:03:53;12.50;99.90
19646;DHT22;9971;52.446;13.452;2022-12-18T07:08:54;12.40;99.90
19646;DHT22;9971;52.446;13.452;2022-12-18T07:13:56;12.50;99.90
19646;DHT22;9971;52.446;13.452;2022-12-18T07:18:58;12.40;99.90
19646;DHT22;9971;52.446;13.452;2022-12-18T07:24:01;12.50;99.90
19646;DHT22;9971;52.446;13.452;2022-12-18T07:29:03;12.40;99.90
19646;DHT22;9971;52.446;13.452;2022-12-18T07:34:09;12.40;99.90
19646;DHT22;9971;52.446;13.452;2022-12-18T07:39:08;12.40;99.90
19646;DHT22;9971;52.446;13.452;2022-12-18T07:44:10;12.40;99.90
19646;DHT22;9971;52.446;13.452;2022-12-18T07:49:12;12.40;99.90
19646;DHT22;9971;52.446;13.452;2022-12-18T07:54:15;12.40;99.90
19646;DHT22;9971;52.446;13.452;2022-12-18T07:59:17;12.40;99.90
19646;DHT22;9971;52.446;13.452;2022-12-18T08:04:19;12.40;99.90
19646;DHT22;9971;52.446;13.452;2022-12-18T08:09:22;12.40;99.90
19646;DHT22;9971;52.446;13.452;2022-12-18T08:14:24;12.30;99.90
19646;DHT22;9971;52.446;13.452;2022-12-18T08:19:26;12.30;99.90
19646;DHT22;9971;52.446;13.452;2022-12-18T08:24:29;12.30;99.90
19646;DHT22;9971;52.446;13.452;2022-12-18T08:29:31;12.40;99.90
19646;DHT22;9971;52.446;13.452;2022-12-18T08:34:33;12.30;99.90
19646;DHT22;9971;52.446;13.452;2022-12-18T08:39:36;12.30;99.90
19646;DHT22;9971;52.446;13.452;2022-12-18T08:44:38;12.30;99.90
19646;DHT22;9971;52.446;13.452;2022-12-18T08:49:41;12.30;99.90
19646;DHT22;9971;52.446;13.452;2022-12-18T08:54:43;12.30;99.90
19646;DHT22;9971;52.446;13.452;2022-12-18T08:59:46;12.30;99.90
19646;DHT22;9971;52.446;13.452;2022-12-18T09:04:48;12.30;99.90
19646;DHT22;9971;52.446;13.452;2022-12-18T09:09:50;12.30;99.90
19646;DHT22;9971;52.446;13.452;2022-12-18T09:14:53;12.30;99.90
19646;DHT22;9971;52.446;13.452;2022-12-18T09:19:55;12.30;99.90
19646;DHT22;9971;52.446;13.452;2022-12-18T09:24:57;12.30;99.90
19646;DHT22;9971;52.446;13.452;2022-12-18T09:30:00;12.30;99.90
19646;DHT22;9971;52.446;13.452;2022-12-18T09:35:02;12.30;99.90
19646;DHT22;9971;52.446;13.452;2022-12-18T09:40:05;12.30;99.90
19646;DHT22;9971;52.446;13.452;2022-12-18T09:45:08;12.30;99.90
19646;DHT22;9971;52.446;13.452;2022-12-18T09:50:21;12.30;99.90
19646;DHT22;9971;52.446;13.452;2022-12-18T09:55:28;12.30;99.90
19646;DHT22;9971;52.446;13.452;2022-12-18T10:00:28;12.30;99.90
19646;DHT22;9971;52.446;13.452;2022-12-18T10:05:38;12.30;99.90
19646;DHT22;9971;52.446;13.452;2022-12-18T10:10:52;12.30;99.90
19646;DHT22;9971;52.446;13.452;2022-12-18T10:16:13;12.30;99.90
19646;DHT22;9971;52.446;13.452;2022-12-18T10:21:18;12.30;99.90
19646;DHT22;9971;52.446;13.452;2022-12-18T10:26:18;12.30;99.90
19646;DHT22;9971;52.446;13.452;2022-12-18T10:31:21;12.40;99.90
19646;DHT22;9971;52.446;13.452;2022-12-18T10:36:23;12.30;99.90
19646;DHT22;9971;52.446;13.452;2022-12-18T10:41:26;12.30;99.90
19646;DHT22;9971;52.446;13.452;2022-12-18T10:46:27;12.30;99.90
19646;DHT22;9971;52.446;13.452;2022-12-18T10:51:31;12.30;99.90
19646;DHT22;9971;52.446;13.452;2022-12-18T10:56:33;12.30;99.90
19646;DHT22;9971;52.446;13.452;2022-12-18T11:01:45;12.30;99.90
19646;DHT22;9971;52.446;13.452;2022-12-18T11:07:02;12.30;99.90
19646;DHT22;9971;52.446;13.452;2022-12-18T11:17:25;12.40;99.90
19646;DHT22;9971;52.446;13.452;2022-12-18T11:22:26;12.40;99.90
19646;DHT22;9971;52.446;13.452;2022-12-18T11:27:28;12.40;99.90
19646;DHT22;9971;52.446;13.452;2022-12-18T11:32:34;12.40;99.90
19646;DHT22;9971;52.446;13.452;2022-12-18T11:37:35;12.40;99.90
19646;DHT22;9971;52.446;13.452;2022-12-18T11:42:58;12.40;99.90
19646;DHT22;9971;52.446;13.452;2022-12-18T11:53:25;12.40;99.90
19646;DHT22;9971;52.446;13.452;2022-12-18T11:58:36;12.40;99.90
19646;DHT22;9971;52.446;13.452;2022-12-18T12:03:49;12.40;99.90
19646;DHT22;9971;52.446;13.452;2022-12-18T12:08:59;12.40;99.90
19646;DHT22;9971;52.446;13.452;2022-12-18T12:14:28;12.40;99.90
19646;DHT22;9971;52.446;13.452;2022-12-18T12:19:46;12.40;99.90
19646;DHT22;9971;52.446;13.452;2022-12-18T12:24:53;12.40;99.90
19646;DHT22;9971;52.446;13.452;2022-12-18T12:30:03;12.40;99.90
19646;DHT22;9971;52.446;13.452;2022-12-18T12:35:13;12.30;99.90
19646;DHT22;9971;52.446;13.452;2022-12-18T12:40:16;12.40;99.90
19646;DHT22;9971;52.446;13.452;2022-12-18T12:45:18;12.40;99.90
19646;DHT22;9971;52.446;13.452;2022-12-18T12:50:19;12.40;99.90
19646;DHT22;9971;52.446;13.452;2022-12-18T12:55:23;12.30;99.90
19646;DHT22;9971;52.446;13.452;2022-12-18T13:00:24;12.30;99.90
19646;DHT22;9971;52.446;13.452;2022-12-18T13:05:33;12.40;99.90
19646;DHT22;9971;52.446;13.452;2022-12-18T13:10:35;12.40;99.90
19646;DHT22;9971;52.446;13.452;2022-12-18T13:21:10;12.40;99.90
19646;DHT22;9971;52.446;13.452;2022-12-18T13:26:30;12.40;99.90
19646;DHT22;9971;52.446;13.452;2022-12-18T13:31:58;12.40;99.90
19646;DHT22;9971;52.446;13.452;2022-12-18T13:42:36;12.50;99.90
19646;DHT22;9971;52.446;13.452;2022-12-18T13:47:39;12.50;99.90
19646;DHT22;9971;52.446;13.452;2022-12-18T13:52:41;12.50;99.90
19646;DHT22;9971;52.446;13.452;2022-12-18T13:57:43;12.50;99.90
19646;DHT22;9971;52.446;13.452;2022-12-18T14:02:45;12.50;99.90
19646;DHT22;9971;52.446;13.452;2022-12-18T14:07:47;12.40;99.90
19646;DHT22;9971;52.446;13.452;2022-12-18T14:12:50;12.40;99.90
19646;DHT22;9971;52.446;13.452;2022-12-18T14:18:01;12.40;99.90
19646;DHT22;9971;52.446;13.452;2022-12-18T14:23:03;12.40;99.90
19646;DHT22;9971;52.446;13.452;2022-12-18T14:28:13;12.50;99.90
19646;DHT22;9971;52.446;13.452;2022-12-18T14:33:15;12.50;99.90
19646;DHT22;9971;52.446;13.452;2022-12-18T14:38:23;12.50;99.90
19646;DHT22;9971;52.446;13.452;2022-12-18T14:43:23;12.50;99.90
19646;DHT22;9971;52.446;13.452;2022-12-18T14:48:40;12.50;99.90
19646;DHT22;9971;52.446;13.452;2022-12-18T14:53:42;12.50;99.90
19646;DHT22;9971;52.446;13.452;2022-12-18T14:58:46;12.50;99.90
19646;DHT22;9971;52.446;13.452;2022-12-18T15:03:47;12.50;99.90
19646;DHT22;9971;52.446;13.452;2022-12-18T15:08:50;12.50;99.90
19646;DHT22;9971;52.446;13.452;2022-12-18T15:13:52;12.50;99.90
19646;DHT22;9971;52.446;13.452;2022-12-18T15:18:54;12.50;99.90
19646;DHT22;9971;52.446;13.452;2022-12-18T15:23:57;12.50;99.90
19646;DHT22;9971;52.446;13.452;2022-12-18T15:28:59;12.50;99.90
19646;DHT22;9971;52.446;13.452;2022-12-18T15:34:13;12.50;99.90
19646;DHT22;9971;52.446;13.452;2022-12-18T15:39:16;12.50;99.90
19646;DHT22;9971;52.446;13.452;2022-12-18T15:44:22;12.50;99.90
19646;DHT22;9971;52.446;13.452;2022-12-18T15:49:23;12.50;99.90
19646;DHT22;9971;52.446;13.452;2022-12-18T15:54:25;12.50;99.90
19646;DHT22;9971;52.446;13.452;2022-12-18T15:59:33;12.50;99.90
19646;DHT22;9971;52.446;13.452;2022-12-18T16:04:36;12.50;99.90
19646;DHT22;9971;52.446;13.452;2022-12-18T16:09:38;12.60;99.90
19646;DHT22;9971;52.446;13.452;2022-12-18T16:14:41;12.50;99.90
19646;DHT22;9971;52.446;13.452;2022-12-18T16:19:43;12.60;99.90
19646;DHT22;9971;52.446;13.452;2022-12-18T16:24:45;12.50;99.90
19646;DHT22;9971;52.446;13.452;2022-12-18T16:29:48;12.60;99.90
19646;DHT22;9971;52.446;13.452;2022-12-18T16:34:50;12.60;99.90
19646;DHT22;9971;52.446;13.452;2022-12-18T16:39:52;12.50;99.90
19646;DHT22;9971;52.446;13.452;2022-12-18T16:44:55;12.50;99.90
19646;DHT22;9971;52.446;13.452;2022-12-18T16:49:57;12.50;99.90
19646;DHT22;9971;52.446;13.452;2022-12-18T16:55:00;12.50;99.90
19646;DHT22;9971;52.446;13.452;2022-12-18T17:00:02;12.50;99.90
19646;DHT22;9971;52.446;13.452;2022-12-18T17:05:05;12.50;99.90
19646;DHT22;9971;52.446;13.452;2022-12-18T17:10:08;12.50;99.90
19646;DHT22;9971;52.446;13.452;2022-12-18T17:15:11;12.60;99.90
19646;DHT22;9971;52.446;13.452;2022-12-18T17:20:13;12.60;99.90
19646;DHT22;9971;52.446;13.452;2022-12-18T17:25:16;12.60;99.90
19646;DHT22;9971;52.446;13.452;2022-12-18T17:30:18;12.60;99.90
19646;DHT22;9971;52.446;13.452;2022-12-18T17:35:21;12.50;99.90
19646;DHT22;9971;52.446;13.452;2022-12-18T17:40:23;12.60;99.90
19646;DHT22;9971;52.446;13.452;2022-12-18T17:45:25;12.50;99.90
19646;DHT22;9971;52.446;13.452;2022-12-18T17:50:28;12.60;99.90
19646;DHT22;9971;52.446;13.452;2022-12-18T17:55:30;12.50;99.90
19646;DHT22;9971;52.446;13.452;2022-12-18T18:00:33;12.60;99.90
19646;DHT22;9971;52.446;13.452;2022-12-18T18:05:35;12.60;99.90
19646;DHT22;9971;52.446;13.452;2022-12-18T18:10:38;12.60;99.90
19646;DHT22;9971;52.446;13.452;2022-12-18T18:15:40;12.50;99.90
19646;DHT22;9971;52.446;13.452;2022-12-18T18:20:42;12.60;99.90
19646;DHT22;9971;52.446;13.452;2022-12-18T18:25:45;12.60;99.90
19646;DHT22;9971;52.446;13.452;2022-12-18T18:30:47;12.60;99.90
19646;DHT22;9971;52.446;13.452;2022-12-18T18:35:50;12.60;99.90
19646;DHT22;9971;52.446;13.452;2022-12-18T18:41:00;12.60;99.90
19646;DHT22;9971;52.446;13.452;2022-12-18T18:46:02;12.60;99.90
19646;DHT22;9971;52.446;13.452;2022-12-18T18:51:07;12.60;99.90
19646;DHT22;9971;52.446;13.452;2022-12-18T18:56:08;12.60;99.90
19646;DHT22;9971;52.446;13.452;2022-12-18T19:01:11;12.60;99.90
19646;DHT22;9971;52.446;13.452;2022-12-18T19:06:18;12.60;99.90
19646;DHT22;9971;52.446;13.452;2022-12-18T19:11:19;12.60;99.90
19646;DHT22;9971;52.446;13.452;2022-12-18T19:16:26;12.60;99.90
19646;DHT22;9971;52.446;13.452;2022-12-18T19:21:28;12.60;99.90
19646;DHT22;9971;52.446;13.452;2022-12-18T19:26:31;12.70;99.90
19646;DHT22;9971;52.446;13.452;2022-12-18T19:31:33;12.70;99.90
19646;DHT22;9971;52.446;13.452;2022-12-18T19:36:36;12.70;99.90
19646;DHT22;9971;52.446;13.452;2022-12-18T19:41:38;12.70;99.90
19646;DHT22;9971;52.446;13.452;2022-12-18T19:46:40;12.70;99.90
19646;DHT22;9971;52.446;13.452;2022-12-18T19:51:42;12.70;99.90
19646;DHT22;9971;52.446;13.452;2022-12-18T19:56:45;12.80;99.90
19646;DHT22;9971;52.446;13.452;2022-12-18T20:01:47;12.80;99.90
19646;DHT22;9971;52.446;13.452;2022-12-18T20:06:50;12.80;99.90
19646;DHT22;9971;52.446;13.452;2022-12-18T20:11:51;12.80;99.90
19646;DHT22;9971;52.446;13.452;2022-12-18T20:16:53;12.80;99.90
19646;DHT22;9971;52.446;13.452;2022-12-18T20:21:56;12.80;99.90
19646;DHT22;9971;52.446;13.452;2022-12-18T20:26:58;12.80;99.90
19646;DHT22;9971;52.446;13.452;2022-12-18T20:32:01;12.80;99.90
19646;DHT22;9971;52.446;13.452;2022-12-18T20:37:03;12.80;99.90
19646;DHT22;9971;52.446;13.452;2022-12-18T20:42:06;12.80;99.90
19646;DHT22;9971;52.446;13.452;2022-12-18T20:47:08;12.80;99.90
19646;DHT22;9971;52.446;13.452;2022-12-18T20:52:11;12.80;99.90
19646;DHT22;9971;52.446;13.452;2022-12-18T20:57:13;12.80;99.90
19646;DHT22;9971;52.446;13.452;2022-12-18T21:02:15;12.80;99.90
19646;DHT22;9971;52.446;13.452;2022-12-18T21:07:17;12.80;99.90
19646;DHT22;9971;52.446;13.452;2022-12-18T21:12:20;12.80;99.90
19646;DHT22;9971;52.446;13.452;2022-12-18T21:17:27;12.80;99.90
19646;DHT22;9971;52.446;13.452;2022-12-18T21:22:30;12.80;99.90
19646;DHT22;9971;52.446;13.452;2022-12-18T21:27:32;12.80;99.90
19646;DHT22;9971;52.446;13.452;2022-12-18T21:32:34;12.80;99.90
19646;DHT22;9971;52.446;13.452;2022-12-18T21:37:36;12.80;99.90
19646;DHT22;9971;52.446;13.452;2022-12-18T21:42:39;12.80;99.90
19646;DHT22;9971;52.446;13.452;2022-12-18T21:47:47;12.70;99.90
19646;DHT22;9971;52.446;13.452;2022-12-18T21:52:50;12.70;99.90
19646;DHT22;9971;52.446;13.452;2022-12-18T21:57:52;12.70;99.90
19646;DHT22;9971;52.446;13.452;2022-12-18T22:02:54;12.70;99.90
19646;DHT22;9971;52.446;13.452;2022-12-18T22:07:57;12.70;99.90
19646;DHT22;9971;52.446;13.452;2022-12-18T22:12:59;12.70;99.90
19646;DHT22;9971;52.446;13.452;2022-12-18T22:18:02;12.70;99.90
19646;DHT22;9971;52.446;13.452;2022-12-18T22:23:04;12.70;99.90
19646;DHT22;9971;52.446;13.452;2022-12-18T22:28:06;12.70;99.90
19646;DHT22;9971;52.446;13.452;2022-12-18T22:33:15;12.70;99.90
19646;DHT22;9971;52.446;13.452;2022-12-18T22:38:17;12.70;99.90
19646;DHT22;9971;52.446;13.452;2022-12-18T22:43:19;12.70;99.90
19646;DHT22;9971;52.446;13.452;2022-12-18T22:48:22;12.70;99.90
19646;DHT22;9971;52.446;13.452;2022-12-18T22:53:24;12.70;99.90
19646;DHT22;9971;52.446;13.452;2022-12-18T22:58:26;12.70;99.90
19646;DHT22;9971;52.446;13.452;2022-12-18T23:03:32;12.60;99.90
19646;DHT22;9971;52.446;13.452;2022-12-18T23:08:34;12.70;99.90
19646;DHT22;9971;52.446;13.452;2022-12-18T23:13:36;12.70;99.90
19646;DHT22;9971;52.446;13.452;2022-12-18T23:18:38;12.60;99.90
19646;DHT22;9971;52.446;13.452;2022-12-18T23:23:41;12.60;99.90
19646;DHT22;9971;52.446;13.452;2022-12-18T23:28:43;12.60;99.90
19646;DHT22;9971;52.446;13.452;2022-12-18T23:33:45;12.60;99.90
19646;DHT22;9971;52.446;13.452;2022-12-18T23:38:48;12.60;99.90
19646;DHT22;9971;52.446;13.452;2022-12-18T23:43:50;12.60;99.90
19646;DHT22;9971;52.446;13.452;2022-12-18T23:48:52;12.60;99.90
19646;DHT22;9971;52.446;13.452;2022-12-18T23:53:55;12.60;99.90
19646;DHT22;9971;52.446;13.452;2022-12-18T23:58:56;12.60;99.90
